sensor_id;sensor_type;location;lat;lon;timestamp;pressure;altitude;pressure_sealevel;temperature;humidity
74441;BME280;62870;54.692;25.284;2024-01-25T00:02:53;987;;;29.1;16.8
74441;BME280;62870;54.692;25.284;2024-01-25T00:07:53;987;;;29.1;16.7
74441;BME280;62870;54.692;25.284;2024-01-25T00:13:25;987;;;29.1;16.7
74441;BME280;62870;54.692;25.284;2024-01-25T00:17:51;986.9;;;29.1;16.7
74441;BME280;62870;54.692;25.284;2024-01-25T00:23:11;986.9;;;29.1;16.8
74441;BME280;62870;54.692;25.284;2024-01-25T00:27:51;986.9;;;29.1;16.8
74441;BME280;62870;54.692;25.284;2024-01-25T00:33:13;986.9;;;29.1;16.8
74441;BME280;62870;54.692;25.284;2024-01-25T00:37:35;986.8;;;29.1;16.8
74441;BME280;62870;54.692;25.284;2024-01-25T00:42:53;986.8;;;29.1;16.7
74441;BME280;62870;54.692;25.284;2024-01-25T00:47:59;986.8;;;29.2;16.7
74441;BME280;62870;54.692;25.284;2024-01-25T00:52:47;986.7;;;29.1;16.8
74441;BME280;62870;54.692;25.284;2024-01-25T00:58:05;986.7;;;29.1;16.8
74441;BME280;62870;54.692;25.284;2024-01-25T01:03:23;986.7;;;29.1;16.8
74441;BME280;62870;54.692;25.284;2024-01-25T01:07:53;986.6;;;29.1;16.8
74441;BME280;62870;54.692;25.284;2024-01-25T01:12:59;986.6;;;29.1;16.8
74441;BME280;62870;54.692;25.284;2024-01-25T01:18:23;986.5;;;29.2;16.8
74441;BME280;62870;54.692;25.284;2024-01-25T01:22:41;986.5;;;29.2;16.8
74441;BME280;62870;54.692;25.284;2024-01-25T01:27:41;986.5;;;29.1;16.8
74441;BME280;62870;54.692;25.284;2024-01-25T01:32:35;986.5;;;29.1;16.8
74441;BME280;62870;54.692;25.284;2024-01-25T01:37:35;986.4;;;29.1;16.8
74441;BME280;62870;54.692;25.284;2024-01-25T01:42:35;986.4;;;29.2;16.8
74441;BME280;62870;54.692;25.284;2024-01-25T01:48:25;986.3;;;29.2;16.8
74441;BME280;62870;54.692;25.284;2024-01-25T01:52:51;986.3;;;29.2;16.8
74441;BME280;62870;54.692;25.284;2024-01-25T01:58:25;986.3;;;29.1;16.8
74441;BME280;62870;54.692;25.284;2024-01-25T02:03:05;986.2;;;29.1;16.9
74441;BME280;62870;54.692;25.284;2024-01-25T02:08:25;986.2;;;29.1;16.9
74441;BME280;62870;54.692;25.284;2024-01-25T02:12:59;986.1;;;29.1;16.8
74441;BME280;62870;54.692;25.284;2024-01-25T02:18:25;986.1;;;29.2;16.8
74441;BME280;62870;54.692;25.284;2024-01-25T02:23:23;986.1;;;29.2;16.8
74441;BME280;62870;54.692;25.284;2024-01-25T02:28:25;986.1;;;29.1;16.8
74441;BME280;62870;54.692;25.284;2024-01-25T02:33:13;986.1;;;29.1;16.9
74441;BME280;62870;54.692;25.284;2024-01-25T02:38:23;986;;;29.1;16.9
74441;BME280;62870;54.692;25.284;2024-01-25T02:43:25;986;;;29.1;16.9
74441;BME280;62870;54.692;25.284;2024-01-25T02:48:05;986;;;29.2;16.8
74441;BME280;62870;54.692;25.284;2024-01-25T02:53:25;986;;;29.2;16.8
74441;BME280;62870;54.692;25.284;2024-01-25T02:57:51;986;;;29.2;16.9
74441;BME280;62870;54.692;25.284;2024-01-25T03:03:11;986;;;29.1;16.9
74441;BME280;62870;54.692;25.284;2024-01-25T03:07:39;985.9;;;29.1;17
74441;BME280;62870;54.692;25.284;2024-01-25T03:12:35;986;;;29.1;16.9
74441;BME280;62870;54.692;25.284;2024-01-25T03:17:35;985.9;;;29.2;16.9
74441;BME280;62870;54.692;25.284;2024-01-25T03:22:51;985.9;;;29.2;16.9
74441;BME280;62870;54.692;25.284;2024-01-25T03:27:51;985.9;;;29.2;16.9
74441;BME280;62870;54.692;25.284;2024-01-25T03:33:25;985.9;;;29.2;16.9
74441;BME280;62870;54.692;25.284;2024-01-25T03:38:05;985.9;;;29.1;16.9
74441;BME280;62870;54.692;25.284;2024-01-25T03:43:05;985.9;;;29.1;17
74441;BME280;62870;54.692;25.284;2024-01-25T03:48:25;985.9;;;29.2;16.9
74441;BME280;62870;54.692;25.284;2024-01-25T03:53:11;985.9;;;29.2;16.9
74441;BME280;62870;54.692;25.284;2024-01-25T03:58:25;985.9;;;29.2;16.9
74441;BME280;62870;54.692;25.284;2024-01-25T04:03:11;985.9;;;29.2;16.9
74441;BME280;62870;54.692;25.284;2024-01-25T04:08:13;985.8;;;29.1;17
74441;BME280;62870;54.692;25.284;2024-01-25T04:12:53;985.9;;;29.1;17
74441;BME280;62870;54.692;25.284;2024-01-25T04:17:37;985.9;;;29.1;17
74441;BME280;62870;54.692;25.284;2024-01-25T04:22:45;985.9;;;29.2;16.9
74441;BME280;62870;54.692;25.284;2024-01-25T04:27:53;985.9;;;29.2;16.9
74441;BME280;62870;54.692;25.284;2024-01-25T04:33:23;985.8;;;29.2;16.9
74441;BME280;62870;54.692;25.284;2024-01-25T04:37:49;985.8;;;29.2;17
74441;BME280;62870;54.692;25.284;2024-01-25T04:42:45;985.8;;;29.1;17
74441;BME280;62870;54.692;25.284;2024-01-25T04:47:41;985.8;;;29.1;17
74441;BME280;62870;54.692;25.284;2024-01-25T04:52:35;985.7;;;29.2;17
74441;BME280;62870;54.692;25.284;2024-01-25T04:57:51;985.7;;;29.2;17
74441;BME280;62870;54.692;25.284;2024-01-25T05:03:11;985.7;;;29.2;17
74441;BME280;62870;54.692;25.284;2024-01-25T05:08:26;985.7;;;29.2;17
74441;BME280;62870;54.692;25.284;2024-01-25T05:13:05;985.7;;;29.1;17
74441;BME280;62870;54.692;25.284;2024-01-25T05:17:35;985.7;;;29.1;17
74441;BME280;62870;54.692;25.284;2024-01-25T05:23:23;985.7;;;29.2;17
74441;BME280;62870;54.692;25.284;2024-01-25T05:28:11;985.8;;;29.2;17
74441;BME280;62870;54.692;25.284;2024-01-25T05:33:13;985.8;;;29.2;17
74441;BME280;62870;54.692;25.284;2024-01-25T05:37:47;985.7;;;29.2;17
74441;BME280;62870;54.692;25.284;2024-01-25T05:43:13;985.8;;;29.2;17.1
74441;BME280;62870;54.692;25.284;2024-01-25T05:47:59;985.8;;;29.1;17.1
74441;BME280;62870;54.692;25.284;2024-01-25T05:53:23;985.8;;;29.2;17
74441;BME280;62870;54.692;25.284;2024-01-25T05:58:13;985.8;;;29.2;17
74441;BME280;62870;54.692;25.284;2024-01-25T06:03:13;985.8;;;29.2;17
74441;BME280;62870;54.692;25.284;2024-01-25T06:08:05;985.8;;;29.2;17.1
74441;BME280;62870;54.692;25.284;2024-01-25T06:13:23;985.9;;;29.2;17.1
74441;BME280;62870;54.692;25.284;2024-01-25T06:17:53;985.9;;;29.2;17.1
74441;BME280;62870;54.692;25.284;2024-01-25T06:22:59;985.9;;;29.2;17
74441;BME280;62870;54.692;25.284;2024-01-25T06:27:35;985.9;;;29.2;17
74441;BME280;62870;54.692;25.284;2024-01-25T06:32:45;985.9;;;29.3;17
74441;BME280;62870;54.692;25.284;2024-01-25T06:37:53;986;;;29.2;17.1
74441;BME280;62870;54.692;25.284;2024-01-25T06:43:25;986;;;29.2;17.1
74441;BME280;62870;54.692;25.284;2024-01-25T06:48:03;986;;;29.2;17.1
74441;BME280;62870;54.692;25.284;2024-01-25T06:53:05;986;;;29.2;17.1
74441;BME280;62870;54.692;25.284;2024-01-25T06:58:11;986;;;29.3;17.1
74441;BME280;62870;54.692;25.284;2024-01-25T07:02:51;986.1;;;29.3;17
74441;BME280;62870;54.692;25.284;2024-01-25T07:08:11;986.1;;;29.3;17.1
74441;BME280;62870;54.692;25.284;2024-01-25T07:12:59;986.1;;;29.2;17.1
74441;BME280;62870;54.692;25.284;2024-01-25T07:18:11;986.1;;;29.2;17.2
74441;BME280;62870;54.692;25.284;2024-01-25T07:22:35;986.2;;;29.2;17.1
74441;BME280;62870;54.692;25.284;2024-01-25T07:28:11;986.2;;;29.3;17.1
74441;BME280;62870;54.692;25.284;2024-01-25T07:32:51;986.3;;;29.3;17.1
74441;BME280;62870;54.692;25.284;2024-01-25T07:38:05;986.3;;;29.3;17.1
74441;BME280;62870;54.692;25.284;2024-01-25T07:42:51;986.4;;;29.3;17.2
74441;BME280;62870;54.692;25.284;2024-01-25T07:48:05;986.4;;;29.2;17.2
74441;BME280;62870;54.692;25.284;2024-01-25T07:53:23;986.4;;;29.2;17.2
74441;BME280;62870;54.692;25.284;2024-01-25T07:57:35;986.5;;;29.3;17.2
74441;BME280;62870;54.692;25.284;2024-01-25T08:02:35;986.5;;;29.3;17.1
74441;BME280;62870;54.692;25.284;2024-01-25T08:07:51;986.5;;;29.3;17.1
74441;BME280;62870;54.692;25.284;2024-01-25T08:12:41;986.5;;;29.3;17.2
74441;BME280;62870;54.692;25.284;2024-01-25T08:17:53;986.5;;;29.3;17.2
74441;BME280;62870;54.692;25.284;2024-01-25T08:23:23;986.6;;;29.2;17.3
74441;BME280;62870;54.692;25.284;2024-01-25T08:28:05;986.7;;;29.3;17.2
74441;BME280;62870;54.692;25.284;2024-01-25T08:33:25;986.7;;;29.3;17.2
74441;BME280;62870;54.692;25.284;2024-01-25T08:38:03;986.7;;;29.3;17.1
74441;BME280;62870;54.692;25.284;2024-01-25T08:43:25;986.8;;;29.3;17.2
74441;BME280;62870;54.692;25.284;2024-01-25T08:47:59;986.8;;;29.3;17.2
74441;BME280;62870;54.692;25.284;2024-01-25T08:53:11;986.9;;;29.3;17.3
74441;BME280;62870;54.692;25.284;2024-01-25T08:57:59;987;;;29.3;17.2
74441;BME280;62870;54.692;25.284;2024-01-25T09:03:01;987;;;29.3;17.2
74441;BME280;62870;54.692;25.284;2024-01-25T09:07:45;987;;;29.4;17.2
74441;BME280;62870;54.692;25.284;2024-01-25T09:13:23;987;;;29.4;17.2
74441;BME280;62870;54.692;25.284;2024-01-25T09:17:51;987.1;;;29.3;17.3
74441;BME280;62870;54.692;25.284;2024-01-25T09:23:05;987.1;;;29.3;17.3
74441;BME280;62870;54.692;25.284;2024-01-25T09:28:25;987.1;;;29.3;17.3
74441;BME280;62870;54.692;25.284;2024-01-25T09:32:47;987.1;;;29.4;17.3
74441;BME280;62870;54.692;25.284;2024-01-25T09:37:41;987.2;;;29.4;17.2
74441;BME280;62870;54.692;25.284;2024-01-25T09:42:49;987.2;;;29.4;17.2
74441;BME280;62870;54.692;25.284;2024-01-25T09:47:53;987.2;;;29.4;17.3
74441;BME280;62870;54.692;25.284;2024-01-25T09:52:45;987.2;;;29.3;17.4
74441;BME280;62870;54.692;25.284;2024-01-25T09:58:21;987.2;;;29.3;17.4
74441;BME280;62870;54.692;25.284;2024-01-25T10:02:43;987.3;;;29.4;17.3
74441;BME280;62870;54.692;25.284;2024-01-25T10:08:21;987.3;;;29.4;17.3
74441;BME280;62870;54.692;25.284;2024-01-25T10:13:03;987.4;;;29.4;17.3
74441;BME280;62870;54.692;25.284;2024-01-25T10:18:25;987.4;;;29.4;17.3
74441;BME280;62870;54.692;25.284;2024-01-25T10:22:35;987.5;;;29.4;17.4
74441;BME280;62870;54.692;25.284;2024-01-25T10:27:55;987.4;;;29.3;17.4
74441;BME280;62870;54.692;25.284;2024-01-25T10:32:55;987.5;;;29.4;17.3
74441;BME280;62870;54.692;25.284;2024-01-25T10:38:25;987.5;;;29.4;17.3
74441;BME280;62870;54.692;25.284;2024-01-25T10:43:13;987.5;;;29.4;17.3
74441;BME280;62870;54.692;25.284;2024-01-25T10:48:24;987.6;;;29.4;17.4
74441;BME280;62870;54.692;25.284;2024-01-25T10:53:23;987.6;;;29.4;17.4
74441;BME280;62870;54.692;25.284;2024-01-25T10:58:06;987.7;;;29.4;17.4
74441;BME280;62870;54.692;25.284;2024-01-25T11:03:25;987.7;;;29.4;17.4
74441;BME280;62870;54.692;25.284;2024-01-25T11:08:05;987.7;;;29.4;17.3
74441;BME280;62870;54.692;25.284;2024-01-25T11:13:00;987.7;;;29.4;17.3
74441;BME280;62870;54.692;25.284;2024-01-25T11:17:41;987.8;;;29.4;17.4
74441;BME280;62870;54.692;25.284;2024-01-25T11:22:35;987.8;;;29.4;17.5
74441;BME280;62870;54.692;25.284;2024-01-25T11:27:35;987.8;;;29.4;17.5
74441;BME280;62870;54.692;25.284;2024-01-25T11:32:35;987.9;;;29.4;17.4
74441;BME280;62870;54.692;25.284;2024-01-25T11:38:11;988;;;29.4;17.4
74441;BME280;62870;54.692;25.284;2024-01-25T11:43:23;988;;;29.5;17.4
74441;BME280;62870;54.692;25.284;2024-01-25T11:48:03;988.1;;;29.4;17.4
74441;BME280;62870;54.692;25.284;2024-01-25T11:52:51;988.1;;;29.4;17.5
74441;BME280;62870;54.692;25.284;2024-01-25T11:58:25;988.2;;;29.4;17.5
74441;BME280;62870;54.692;25.284;2024-01-25T12:03:11;988.2;;;29.4;17.5
74441;BME280;62870;54.692;25.284;2024-01-25T12:08:13;988.2;;;29.4;17.4
74441;BME280;62870;54.692;25.284;2024-01-25T12:12:35;988.2;;;29.5;17.4
74441;BME280;62870;54.692;25.284;2024-01-25T12:18:13;988.2;;;29.5;17.4
74441;BME280;62870;54.692;25.284;2024-01-25T12:22:53;988.2;;;29.4;17.5
74441;BME280;62870;54.692;25.284;2024-01-25T12:28:23;988.3;;;29.4;17.5
74441;BME280;62870;54.692;25.284;2024-01-25T12:32:53;988.4;;;29.4;17.5
74441;BME280;62870;54.692;25.284;2024-01-25T12:38:13;988.4;;;29.4;17.4
74441;BME280;62870;54.692;25.284;2024-01-25T12:43:05;988.4;;;29.5;17.4
74441;BME280;62870;54.692;25.284;2024-01-25T12:48:23;988.4;;;29.5;17.4
74441;BME280;62870;54.692;25.284;2024-01-25T12:52:45;988.5;;;29.4;17.5
74441;BME280;62870;54.692;25.284;2024-01-25T12:57:35;988.5;;;29.4;17.5
74441;BME280;62870;54.692;25.284;2024-01-25T13:02:35;988.5;;;29.4;17.5
74441;BME280;62870;54.692;25.284;2024-01-25T13:08:05;988.6;;;29.4;17.5
74441;BME280;62870;54.692;25.284;2024-01-25T13:12:53;988.6;;;29.5;17.4
74441;BME280;62870;54.692;25.284;2024-01-25T13:18:25;988.6;;;29.5;17.5
74441;BME280;62870;54.692;25.284;2024-01-25T13:23:23;988.7;;;29.5;17.5
74441;BME280;62870;54.692;25.284;2024-01-25T13:27:51;988.8;;;29.4;17.5
74441;BME280;62870;54.692;25.284;2024-01-25T13:33:25;988.9;;;29.4;17.6
74441;BME280;62870;54.692;25.284;2024-01-25T13:38:11;988.9;;;29.4;17.5
74441;BME280;62870;54.692;25.284;2024-01-25T13:43:13;989;;;29.5;17.5
74441;BME280;62870;54.692;25.284;2024-01-25T13:47:41;989;;;29.5;17.5
74441;BME280;62870;54.692;25.284;2024-01-25T13:53:01;989;;;29.5;17.5
74441;BME280;62870;54.692;25.284;2024-01-25T13:57:53;989.1;;;29.4;17.5
74441;BME280;62870;54.692;25.284;2024-01-25T14:03:23;989.2;;;29.4;17.6
74441;BME280;62870;54.692;25.284;2024-01-25T14:07:41;989.3;;;29.4;17.5
74441;BME280;62870;54.692;25.284;2024-01-25T14:13:11;989.4;;;29.5;17.5
74441;BME280;62870;54.692;25.284;2024-01-25T14:17:35;989.4;;;29.5;17.5
74441;BME280;62870;54.692;25.284;2024-01-25T14:23:25;989.4;;;29.5;17.5
74441;BME280;62870;54.692;25.284;2024-01-25T14:27:41;989.4;;;29.5;17.9
74441;BME280;62870;54.692;25.284;2024-01-25T14:32:41;989.5;;;29.5;18.1
74441;BME280;62870;54.692;25.284;2024-01-25T14:37:41;989.5;;;29.5;18.2
74441;BME280;62870;54.692;25.284;2024-01-25T14:42:35;989.6;;;29.3;18.3
74441;BME280;62870;54.692;25.284;2024-01-25T14:47:41;989.7;;;29;18.5
74441;BME280;62870;54.692;25.284;2024-01-25T14:53:25;989.7;;;28.7;18.8
74441;BME280;62870;54.692;25.284;2024-01-25T14:58:25;989.7;;;28.5;19.4
74441;BME280;62870;54.692;25.284;2024-01-25T15:02:35;989.9;;;28.4;20
74441;BME280;62870;54.692;25.284;2024-01-25T15:23:58;990.1;;;28.3;20.9
74441;BME280;62870;54.692;25.284;2024-01-25T15:29:42;990.2;;;28.2;21.4
74441;BME280;62870;54.692;25.284;2024-01-25T15:34:22;990.2;;;28.2;21.8
74441;BME280;62870;54.692;25.284;2024-01-25T15:39:20;990.3;;;28.2;21.9
74441;BME280;62870;54.692;25.284;2024-01-25T15:44:42;990.3;;;28.3;21.1
74441;BME280;62870;54.692;25.284;2024-01-25T15:48:52;990.3;;;28.3;21
74441;BME280;62870;54.692;25.284;2024-01-25T15:54:08;990.4;;;28.3;21.1
74441;BME280;62870;54.692;25.284;2024-01-25T15:58:58;990.4;;;28.3;21.6
74441;BME280;62870;54.692;25.284;2024-01-25T16:04:16;990.5;;;28.2;21.7
74441;BME280;62870;54.692;25.284;2024-01-25T16:08:52;990.6;;;28.2;21.6
74441;BME280;62870;54.692;25.284;2024-01-25T16:14:42;990.7;;;28.3;21.2
74441;BME280;62870;54.692;25.284;2024-01-25T16:19:08;990.7;;;28.3;21.1
74441;BME280;62870;54.692;25.284;2024-01-25T16:24:40;990.7;;;28.3;21
74441;BME280;62870;54.692;25.284;2024-01-25T16:28:54;990.7;;;28.3;21.3
74441;BME280;62870;54.692;25.284;2024-01-25T16:34:40;990.8;;;28.3;21.5
74441;BME280;62870;54.692;25.284;2024-01-25T16:38:52;990.8;;;28.3;21.5
74441;BME280;62870;54.692;25.284;2024-01-25T16:44:28;990.9;;;28.4;21.3
74441;BME280;62870;54.692;25.284;2024-01-25T16:49:42;990.9;;;28.4;21.1
74441;BME280;62870;54.692;25.284;2024-01-25T16:54:42;991;;;28.4;21.1
74441;BME280;62870;54.692;25.284;2024-01-25T16:59:12;991.1;;;28.4;21.2
74441;BME280;62870;54.692;25.284;2024-01-25T17:04:42;991.2;;;28.4;21.5
74441;BME280;62870;54.692;25.284;2024-01-25T17:09:34;991.2;;;28.4;21.4
74441;BME280;62870;54.692;25.284;2024-01-25T17:14:00;991.3;;;28.4;21.3
74441;BME280;62870;54.692;25.284;2024-01-25T17:19:42;991.3;;;28.4;21.2
74441;BME280;62870;54.692;25.284;2024-01-25T17:23:52;991.4;;;28.4;21.2
74441;BME280;62870;54.692;25.284;2024-01-25T17:28:52;991.4;;;28.4;21.3
74441;BME280;62870;54.692;25.284;2024-01-25T17:34:02;991.5;;;28.4;21.8
74441;BME280;62870;54.692;25.284;2024-01-25T17:39:16;991.5;;;28.4;21.8
74441;BME280;62870;54.692;25.284;2024-01-25T17:43:58;991.6;;;28.4;21.9
74441;BME280;62870;54.692;25.284;2024-01-25T17:48:52;991.6;;;28.4;21.6
74441;BME280;62870;54.692;25.284;2024-01-25T17:54:24;991.7;;;28.5;21.5
74441;BME280;62870;54.692;25.284;2024-01-25T17:59:42;991.7;;;28.5;21.4
74441;BME280;62870;54.692;25.284;2024-01-25T18:04:20;991.7;;;28.5;21.8
74441;BME280;62870;54.692;25.284;2024-01-25T18:09:12;991.8;;;28.4;21.8
74441;BME280;62870;54.692;25.284;2024-01-25T18:13:52;991.9;;;28.4;21.9
74441;BME280;62870;54.692;25.284;2024-01-25T18:19:30;992;;;28.5;21.6
74441;BME280;62870;54.692;25.284;2024-01-25T18:24:32;992;;;28.5;21.5
74441;BME280;62870;54.692;25.284;2024-01-25T18:29:18;992.1;;;28.6;21.5
74441;BME280;62870;54.692;25.284;2024-01-25T18:34:32;992.2;;;28.5;21.7
74441;BME280;62870;54.692;25.284;2024-01-25T18:39:10;992.3;;;28.4;21.9
74441;BME280;62870;54.692;25.284;2024-01-25T18:44:42;992.3;;;28.3;21.9
74441;BME280;62870;54.692;25.284;2024-01-25T18:48:52;992.4;;;28.3;21.7
74441;BME280;62870;54.692;25.284;2024-01-25T18:54:14;992.5;;;28.3;21.5
74441;BME280;62870;54.692;25.284;2024-01-25T18:58:52;992.6;;;28.2;21.5
74441;BME280;62870;54.692;25.284;2024-01-25T19:04:44;992.6;;;28.2;21.6
74441;BME280;62870;54.692;25.284;2024-01-25T19:08:52;992.7;;;28.1;21.7
74441;BME280;62870;54.692;25.284;2024-01-25T19:14:18;992.8;;;28.1;21.7
74441;BME280;62870;54.692;25.284;2024-01-25T19:19:00;992.9;;;28.1;21.6
74441;BME280;62870;54.692;25.284;2024-01-25T19:24:00;992.9;;;28.1;21.4
74441;BME280;62870;54.692;25.284;2024-01-25T19:29:40;993;;;28.1;21.3
74441;BME280;62870;54.692;25.284;2024-01-25T19:34:44;993.1;;;28.1;21.3
74441;BME280;62870;54.692;25.284;2024-01-25T19:39:44;993.1;;;28;21.4
74441;BME280;62870;54.692;25.284;2024-01-25T19:44:22;993.2;;;28;21.4
74441;BME280;62870;54.692;25.284;2024-01-25T19:49:30;993.3;;;27.9;21.4
74441;BME280;62870;54.692;25.284;2024-01-25T19:54:10;993.4;;;28;21.3
74441;BME280;62870;54.692;25.284;2024-01-25T19:59:30;993.4;;;28;21.2
74441;BME280;62870;54.692;25.284;2024-01-25T20:04:18;993.5;;;28;21.2
74441;BME280;62870;54.692;25.284;2024-01-25T20:09:42;993.6;;;27.9;21.3
74441;BME280;62870;54.692;25.284;2024-01-25T20:13:52;993.6;;;27.9;21.3
74441;BME280;62870;54.692;25.284;2024-01-25T20:19:30;993.7;;;27.9;21.3
74441;BME280;62870;54.692;25.284;2024-01-25T20:24:10;993.7;;;27.9;21.2
74441;BME280;62870;54.692;25.284;2024-01-25T20:29:42;993.8;;;27.9;21.1
74441;BME280;62870;54.692;25.284;2024-01-25T20:34:10;993.9;;;27.9;21
74441;BME280;62870;54.692;25.284;2024-01-25T20:39:22;993.9;;;27.9;21.1
74441;BME280;62870;54.692;25.284;2024-01-25T20:44:42;994;;;27.9;21.1
74441;BME280;62870;54.692;25.284;2024-01-25T20:48:52;994;;;27.8;21.1
74441;BME280;62870;54.692;25.284;2024-01-25T20:54:00;994.2;;;27.8;21
74441;BME280;62870;54.692;25.284;2024-01-25T20:59:30;994.2;;;27.9;20.9
74441;BME280;62870;54.692;25.284;2024-01-25T21:03:52;994.3;;;27.9;20.9
74441;BME280;62870;54.692;25.284;2024-01-25T21:08:58;994.4;;;27.9;20.9
74441;BME280;62870;54.692;25.284;2024-01-25T21:14:42;994.4;;;27.8;21
74441;BME280;62870;54.692;25.284;2024-01-25T21:19:42;994.5;;;27.8;21
74441;BME280;62870;54.692;25.284;2024-01-25T21:24:42;994.5;;;27.8;20.9
74441;BME280;62870;54.692;25.284;2024-01-25T21:29:22;994.6;;;27.8;20.8
74441;BME280;62870;54.692;25.284;2024-01-25T21:34:42;994.7;;;27.8;20.8
74441;BME280;62870;54.692;25.284;2024-01-25T21:39:00;994.7;;;27.8;20.8
74441;BME280;62870;54.692;25.284;2024-01-25T21:44:30;994.8;;;27.8;20.8
74441;BME280;62870;54.692;25.284;2024-01-25T21:49:42;994.9;;;27.8;20.8
74441;BME280;62870;54.692;25.284;2024-01-25T21:54:42;995;;;27.8;20.8
74441;BME280;62870;54.692;25.284;2024-01-25T21:59:42;995;;;27.8;20.7
74441;BME280;62870;54.692;25.284;2024-01-25T22:04:42;995.1;;;27.8;20.6
74441;BME280;62870;54.692;25.284;2024-01-25T22:09:36;995.2;;;27.8;20.7
74441;BME280;62870;54.692;25.284;2024-01-25T22:14:06;995.2;;;27.8;20.7
74441;BME280;62870;54.692;25.284;2024-01-25T22:19:42;995.3;;;27.8;20.7
74441;BME280;62870;54.692;25.284;2024-01-25T22:24:00;995.4;;;27.7;20.7
74441;BME280;62870;54.692;25.284;2024-01-25T22:29:00;995.5;;;27.8;20.6
74441;BME280;62870;54.692;25.284;2024-01-25T22:34:10;995.5;;;27.8;20.6
74441;BME280;62870;54.692;25.284;2024-01-25T22:38:52;995.6;;;27.8;20.5
74441;BME280;62870;54.692;25.284;2024-01-25T22:44:00;995.7;;;27.8;20.6
74441;BME280;62870;54.692;25.284;2024-01-25T22:49:42;995.8;;;27.7;20.6
74441;BME280;62870;54.692;25.284;2024-01-25T22:54:10;995.8;;;27.7;20.6
74441;BME280;62870;54.692;25.284;2024-01-25T22:59:38;995.9;;;27.7;20.5
74441;BME280;62870;54.692;25.284;2024-01-25T23:04:22;996;;;27.8;20.5
74441;BME280;62870;54.692;25.284;2024-01-25T23:09:42;996;;;27.8;20.4
74441;BME280;62870;54.692;25.284;2024-01-25T23:14:30;996.1;;;27.8;20.5
74441;BME280;62870;54.692;25.284;2024-01-25T23:19:20;996.2;;;27.7;20.5
74441;BME280;62870;54.692;25.284;2024-01-25T23:24:42;996.3;;;27.7;20.5
74441;BME280;62870;54.692;25.284;2024-01-25T23:29:30;996.4;;;27.7;20.5
74441;BME280;62870;54.692;25.284;2024-01-25T23:34:02;996.5;;;27.7;20.4
74441;BME280;62870;54.692;25.284;2024-01-25T23:39:42;996.7;;;27.8;20.4
74441;BME280;62870;54.692;25.284;2024-01-25T23:44:42;996.7;;;27.8;20.4
74441;BME280;62870;54.692;25.284;2024-01-25T23:49:22;996.7;;;27.7;20.4
74441;BME280;62870;54.692;25.284;2024-01-25T23:54:24;996.8;;;27.7;20.4
74441;BME280;62870;54.692;25.284;2024-01-25T23:59:02;996.9;;;27.7;20.4
